Time;durP1;ratioP1;P1;durP2;ratioP2;P2;SDS_P1;SDS_P2;PMS_P1;PMS_P2;Temp;Humidity;BMP_temperature;BMP_pressure;BME280_temperature;BME280_humidity;BME280_pressure;Samples;Min_cycle;Max_cycle;Signal;HPM_P1;HPM_P2
2023/06/17 00:00:54;;;;;;;6.60;5.03;;;15.20;99.90;;;;;;4183999;28;20236;-76
2023/06/17 00:02:57;;;;;;;6.23;4.83;;;15.20;99.90;;;;;;4181525;28;20228;-76
2023/06/17 00:04:59;;;;;;;8.20;5.60;;;15.10;99.90;;;;;;4180576;28;20218;-76
2023/06/17 00:07:02;;;;;;;9.47;5.97;;;15.10;99.90;;;;;;4190055;28;20204;-76
2023/06/17 00:09:04;;;;;;;7.93;6.07;;;15.10;99.90;;;;;;4184070;28;20239;-75
2023/06/17 00:11:06;;;;;;;8.17;5.27;;;15.00;99.90;;;;;;4181509;28;20240;-75
2023/06/17 00:13:08;;;;;;;9.63;6.13;;;15.00;99.90;;;;;;4172285;28;20209;-75
2023/06/17 00:15:12;;;;;;;8.43;6.27;;;14.90;99.90;;;;;;4176343;28;20553;-75
2023/06/17 00:17:14;;;;;;;8.23;6.23;;;14.90;99.90;;;;;;4182931;28;20224;-75
2023/06/17 00:19:20;;;;;;;8.67;6.50;;;14.90;99.90;;;;;;4184336;28;20208;-75
2023/06/17 00:21:22;;;;;;;12.90;7.20;;;14.90;99.90;;;;;;4178494;28;20584;-77
2023/06/17 00:23:25;;;;;;;9.43;7.03;;;14.80;99.90;;;;;;4177901;28;20215;-75
2023/06/17 00:25:27;;;;;;;9.10;5.60;;;14.80;99.90;;;;;;4177955;28;20205;-78
2023/06/17 00:27:29;;;;;;;6.57;5.53;;;14.70;99.90;;;;;;4180725;28;20207;-78
2023/06/17 00:29:31;;;;;;;9.80;6.27;;;14.70;99.90;;;;;;4180803;28;20226;-77
2023/06/17 00:31:33;;;;;;;8.00;6.00;;;14.60;99.90;;;;;;4192288;28;20236;-75
2023/06/17 00:33:35;;;;;;;8.80;5.83;;;14.60;99.90;;;;;;4196558;28;20233;-75
2023/06/17 00:35:38;;;;;;;9.70;5.70;;;14.60;99.90;;;;;;4189943;28;20210;-75
2023/06/17 00:37:40;;;;;;;8.43;5.97;;;14.60;99.90;;;;;;4194762;28;20232;-76
2023/06/17 00:39:42;;;;;;;11.20;7.17;;;14.50;99.90;;;;;;4199493;28;20188;-75
2023/06/17 00:41:44;;;;;;;10.77;6.70;;;14.50;99.90;;;;;;4195975;28;20233;-75
2023/06/17 00:43:46;;;;;;;11.50;6.53;;;14.50;99.90;;;;;;4182372;28;20208;-75
2023/06/17 00:45:48;;;;;;;9.20;6.37;;;14.50;99.90;;;;;;4186384;28;20663;-75
2023/06/17 00:47:50;;;;;;;11.50;6.83;;;14.40;99.90;;;;;;4174301;28;20674;-76
2023/06/17 00:49:53;;;;;;;11.37;7.63;;;14.40;99.90;;;;;;4177140;28;20231;-75
2023/06/17 00:52:04;;;;;;;9.67;6.90;;;14.40;99.90;;;;;;4174349;28;20247;-75
2023/06/17 00:54:08;;;;;;;10.27;6.77;;;14.30;99.90;;;;;;4179843;28;20222;-75
2023/06/17 00:56:17;;;;;;;9.77;6.83;;;14.30;99.90;;;;;;4179454;28;20646;-76
2023/06/17 00:58:19;;;;;;;11.10;7.33;;;14.30;99.90;;;;;;4175206;28;20223;-75
2023/06/17 01:00:21;;;;;;;10.87;7.43;;;14.30;99.90;;;;;;4180839;28;20230;-76
2023/06/17 01:02:25;;;;;;;11.37;8.10;;;14.20;99.90;;;;;;4179505;28;20214;-75
2023/06/17 01:04:28;;;;;;;14.47;8.13;;;14.10;99.90;;;;;;4175780;28;20217;-75
2023/06/17 01:06:52;;;;;;;10.53;7.50;;;14.20;99.90;;;;;;4180548;28;20234;-75
2023/06/17 01:09:02;;;;;;;9.50;6.90;;;14.10;99.90;;;;;;4179601;28;20217;-75
2023/06/17 01:11:08;;;;;;;11.00;7.27;;;14.10;99.90;;;;;;4180886;28;20604;-75
2023/06/17 01:13:15;;;;;;;8.97;6.47;;;14.10;99.90;;;;;;4180618;28;20242;-75
2023/06/17 01:15:18;;;;;;;9.87;7.10;;;14.00;99.90;;;;;;4177741;28;20203;-75
2023/06/17 01:17:20;;;;;;;9.70;7.23;;;14.00;99.90;;;;;;4176466;28;20240;-75
2023/06/17 01:19:24;;;;;;;13.83;7.80;;;14.00;99.90;;;;;;4178750;28;20655;-75
2023/06/17 01:21:28;;;;;;;12.90;7.70;;;14.00;99.90;;;;;;4175788;28;20229;-76
2023/06/17 01:23:34;;;;;;;11.10;7.50;;;13.90;99.90;;;;;;4173188;28;20207;-76
2023/06/17 01:25:39;;;;;;;14.93;8.77;;;13.90;99.90;;;;;;4175561;28;20218;-76
2023/06/17 01:27:42;;;;;;;11.63;7.97;;;13.90;99.90;;;;;;4176862;28;20215;-75
2023/06/17 01:29:47;;;;;;;11.97;7.87;;;13.90;99.90;;;;;;4181099;28;20234;-75
2023/06/17 01:31:49;;;;;;;12.17;8.07;;;13.90;99.90;;;;;;4225956;22;20230;-78
2023/06/17 01:33:52;;;;;;;12.70;7.77;;;13.80;99.90;;;;;;4195503;28;20217;-79
2023/06/17 01:36:01;;;;;;;10.77;7.63;;;13.80;99.90;;;;;;4196602;28;20301;-79
2023/06/17 01:38:08;;;;;;;12.50;7.40;;;13.80;99.90;;;;;;4198581;28;20252;-78
2023/06/17 01:40:13;;;;;;;11.60;7.33;;;13.80;99.90;;;;;;4198687;28;20235;-79
2023/06/17 01:42:36;;;;;;;13.03;8.07;;;13.80;99.90;;;;;;4197088;28;20328;-77
2023/06/17 01:44:40;;;;;;;10.23;7.67;;;13.80;99.90;;;;;;4196565;28;20308;-77
2023/06/17 01:46:43;;;;;;;10.20;7.40;;;13.80;99.90;;;;;;4200846;28;20220;-77
2023/06/17 01:48:45;;;;;;;12.20;8.47;;;13.70;99.90;;;;;;4193399;28;20340;-79
2023/06/17 01:50:47;;;;;;;10.20;7.57;;;13.70;99.90;;;;;;4192149;28;20230;-77
2023/06/17 01:52:49;;;;;;;12.27;8.53;;;13.70;99.90;;;;;;4196626;28;20213;-78
2023/06/17 01:54:51;;;;;;;11.03;7.47;;;13.70;99.90;;;;;;4196937;28;20679;-77
2023/06/17 01:56:53;;;;;;;10.57;7.50;;;13.60;99.90;;;;;;4196939;28;20784;-78
2023/06/17 01:58:56;;;;;;;14.10;8.17;;;13.60;99.90;;;;;;4194433;28;20297;-78
2023/06/17 02:00:58;;;;;;;12.03;7.77;;;13.50;99.90;;;;;;4193146;28;20343;-78
2023/06/17 02:03:00;;;;;;;12.37;8.67;;;13.50;99.90;;;;;;4197694;28;20698;-78
2023/06/17 02:05:02;;;;;;;12.67;8.53;;;13.50;99.90;;;;;;4201253;28;20333;-78
2023/06/17 02:07:04;;;;;;;10.30;7.33;;;13.50;99.90;;;;;;4192473;28;20315;-77
2023/06/17 02:09:07;;;;;;;13.70;8.37;;;13.50;99.90;;;;;;4196208;28;20309;-78
2023/06/17 02:11:09;;;;;;;14.27;9.10;;;13.40;99.90;;;;;;4191287;28;20242;-77
2023/06/17 02:13:11;;;;;;;10.53;8.13;;;13.40;99.90;;;;;;4193705;28;20212;-77
2023/06/17 02:15:14;;;;;;;12.57;8.53;;;13.40;99.90;;;;;;4203310;28;20244;-78
2023/06/17 02:17:16;;;;;;;12.20;8.60;;;13.40;99.90;;;;;;4196679;28;20210;-79
2023/06/17 02:19:18;;;;;;;13.40;7.73;;;13.30;99.90;;;;;;4197469;28;20221;-79
2023/06/17 02:21:20;;;;;;;11.37;7.37;;;13.30;99.90;;;;;;4205988;28;20238;-78
2023/06/17 02:23:22;;;;;;;13.97;8.77;;;13.30;99.90;;;;;;4201346;28;20206;-76
2023/06/17 02:25:24;;;;;;;11.10;7.93;;;13.30;99.90;;;;;;4206135;28;20295;-78
2023/06/17 02:27:26;;;;;;;11.83;8.43;;;13.30;99.90;;;;;;4208872;28;20252;-78
2023/06/17 02:29:27;;;;;;;11.10;8.33;;;13.30;99.90;;;;;;4210777;28;20209;-76
2023/06/17 02:31:32;;;;;;;12.70;9.07;;;13.30;99.90;;;;;;4209104;28;20233;-78
2023/06/17 02:33:34;;;;;;;15.50;8.57;;;13.20;99.90;;;;;;4205089;28;20205;-78
2023/06/17 02:35:36;;;;;;;16.50;9.87;;;13.20;99.90;;;;;;4204945;28;20752;-77
2023/06/17 02:37:38;;;;;;;15.07;9.57;;;13.20;99.90;;;;;;4208282;28;20298;-79
2023/06/17 02:39:40;;;;;;;13.30;8.70;;;13.20;99.90;;;;;;4206932;28;20205;-78
2023/06/17 02:41:42;;;;;;;15.43;9.17;;;13.20;99.90;;;;;;4205863;28;20233;-77
2023/06/17 02:43:44;;;;;;;15.13;9.53;;;13.20;99.90;;;;;;4209391;28;20198;-76
2023/06/17 02:45:46;;;;;;;15.53;10.07;;;13.10;99.90;;;;;;4206863;28;20229;-77
2023/06/17 02:47:50;;;;;;;13.80;9.03;;;13.10;99.90;;;;;;4207705;28;20210;-77
2023/06/17 02:49:52;;;;;;;15.70;9.23;;;13.30;99.90;;;;;;4210237;28;20613;-76
2023/06/17 02:51:54;;;;;;;11.57;8.33;;;13.10;99.90;;;;;;4200980;28;20238;-77
2023/06/17 02:53:56;;;;;;;13.17;8.33;;;13.10;99.90;;;;;;4196367;28;20213;-77
2023/06/17 02:55:58;;;;;;;12.30;8.60;;;13.10;99.90;;;;;;4197028;28;20237;-78
2023/06/17 02:58:01;;;;;;;11.80;8.30;;;13.10;99.90;;;;;;4197214;28;20212;-79
2023/06/17 03:00:05;;;;;;;12.63;8.57;;;13.00;99.90;;;;;;4199765;28;20260;-78
2023/06/17 03:02:07;;;;;;;15.67;9.07;;;13.00;99.90;;;;;;4189522;28;20583;-78
2023/06/17 03:04:11;;;;;;;15.07;8.70;;;13.00;99.90;;;;;;4196865;28;20233;-78
2023/06/17 03:06:14;;;;;;;13.00;8.80;;;13.00;99.90;;;;;;4201269;28;20227;-76
2023/06/17 03:08:18;;;;;;;12.27;8.40;;;13.00;99.90;;;;;;4191820;28;20233;-78
2023/06/17 03:10:20;;;;;;;15.23;8.77;;;13.00;99.90;;;;;;4204730;28;20218;-79
2023/06/17 03:12:22;;;;;;;12.93;8.97;;;13.00;99.90;;;;;;4207179;28;20324;-80
2023/06/17 03:14:24;;;;;;;12.97;8.60;;;12.90;99.90;;;;;;4201745;28;20224;-80
2023/06/17 03:16:28;;;;;;;13.77;8.20;;;12.90;99.90;;;;;;4207306;28;20205;-80
2023/06/17 03:18:29;;;;;;;12.33;8.63;;;13.00;99.90;;;;;;4200161;28;20217;-78
2023/06/17 03:20:34;;;;;;;12.27;8.77;;;12.90;99.90;;;;;;4202098;28;20209;-79
2023/06/17 03:22:36;;;;;;;13.17;8.57;;;12.90;99.90;;;;;;4201144;28;20198;-77
2023/06/17 03:24:38;;;;;;;11.70;7.90;;;12.90;99.90;;;;;;4203327;28;20298;-80
2023/06/17 03:26:40;;;;;;;14.13;8.97;;;12.90;99.90;;;;;;4207092;28;20207;-79
2023/06/17 03:28:42;;;;;;;13.03;9.10;;;12.90;99.90;;;;;;4198599;28;20219;-79
2023/06/17 03:30:44;;;;;;;17.90;9.80;;;12.90;99.90;;;;;;4196354;28;20249;-80
2023/06/17 03:32:47;;;;;;;14.73;9.30;;;12.90;99.90;;;;;;4202146;28;20206;-78
2023/06/17 03:34:49;;;;;;;12.53;8.67;;;12.90;99.90;;;;;;4203167;28;20335;-78
2023/06/17 03:36:52;;;;;;;12.20;8.37;;;12.90;99.90;;;;;;4192068;28;20214;-79
2023/06/17 03:38:54;;;;;;;14.33;9.27;;;12.90;99.90;;;;;;4203692;28;20231;-78
2023/06/17 03:40:56;;;;;;;14.03;9.33;;;12.90;99.90;;;;;;4193239;28;20288;-80
2023/06/17 03:42:58;;;;;;;14.93;9.67;;;12.90;99.90;;;;;;4192071;28;20308;-79
2023/06/17 03:45:00;;;;;;;12.60;9.30;;;12.90;99.90;;;;;;4195707;28;20263;-79
2023/06/17 03:47:02;;;;;;;12.70;8.63;;;12.90;99.90;;;;;;4196051;28;20879;-79
2023/06/17 03:49:04;;;;;;;13.33;8.83;;;12.80;99.90;;;;;;4192416;28;20308;-78
2023/06/17 03:51:06;;;;;;;12.50;9.17;;;12.90;99.90;;;;;;4196442;28;20323;-79
2023/06/17 03:53:10;;;;;;;15.10;8.97;;;12.90;99.90;;;;;;4192189;28;20243;-80
2023/06/17 03:55:12;;;;;;;13.10;9.73;;;13.00;99.90;;;;;;4197261;28;20238;-79
2023/06/17 03:57:14;;;;;;;15.90;10.50;;;13.00;99.90;;;;;;4198286;28;20675;-79
2023/06/17 03:59:16;;;;;;;12.10;8.83;;;13.00;99.90;;;;;;4193013;28;20235;-80
2023/06/17 04:01:18;;;;;;;14.17;9.23;;;13.00;99.90;;;;;;4195461;28;20222;-78
2023/06/17 04:03:23;;;;;;;11.87;8.67;;;13.00;99.90;;;;;;4194404;28;20202;-79
2023/06/17 04:05:32;;;;;;;14.27;9.73;;;13.00;99.90;;;;;;4194379;28;20563;-77
2023/06/17 04:07:34;;;;;;;13.07;8.47;;;13.00;99.90;;;;;;4198340;28;20250;-79
2023/06/17 04:09:37;;;;;;;13.93;9.07;;;13.10;99.90;;;;;;4196019;28;20233;-78
2023/06/17 04:11:41;;;;;;;12.27;8.63;;;13.00;99.90;;;;;;4195762;28;20321;-77
2023/06/17 04:13:42;;;;;;;13.00;7.83;;;13.00;99.90;;;;;;4206651;28;20299;-78
2023/06/17 04:15:46;;;;;;;13.10;8.30;;;13.00;99.90;;;;;;4197802;28;20234;-78
2023/06/17 04:17:48;;;;;;;13.10;8.60;;;13.00;99.90;;;;;;4199209;28;20236;-77
2023/06/17 04:19:50;;;;;;;12.13;8.13;;;13.00;99.90;;;;;;4204723;28;20259;-78
2023/06/17 04:21:52;;;;;;;11.30;7.97;;;13.00;99.90;;;;;;4196651;28;20238;-78
2023/06/17 04:23:54;;;;;;;11.67;7.90;;;13.00;99.90;;;;;;4201674;28;20290;-76
2023/06/17 04:25:57;;;;;;;12.93;8.77;;;13.00;99.90;;;;;;4204853;28;20220;-78
2023/06/17 04:28:01;;;;;;;11.03;8.10;;;13.00;99.90;;;;;;4199247;28;20277;-78
2023/06/17 04:30:03;;;;;;;12.27;8.20;;;13.00;99.90;;;;;;4198835;28;20205;-78
2023/06/17 04:32:10;;;;;;;13.20;9.17;;;13.00;99.90;;;;;;4199457;28;20237;-79
2023/06/17 04:34:21;;;;;;;12.23;7.90;;;13.10;99.90;;;;;;4202251;28;20209;-78
2023/06/17 04:36:24;;;;;;;14.03;8.93;;;13.00;99.90;;;;;;4205726;28;20240;-78
2023/06/17 04:38:26;;;;;;;14.10;8.90;;;13.10;99.90;;;;;;4198881;28;20271;-77
2023/06/17 04:40:28;;;;;;;11.00;8.17;;;13.10;99.90;;;;;;4199090;28;20739;-80
2023/06/17 04:42:33;;;;;;;11.13;7.70;;;13.10;99.90;;;;;;4197344;28;20747;-78
2023/06/17 04:44:36;;;;;;;11.53;7.77;;;13.10;99.90;;;;;;4193240;28;20305;-78
2023/06/17 04:46:38;;;;;;;10.80;7.70;;;13.20;99.90;;;;;;4194110;28;20257;-79
2023/06/17 04:48:40;;;;;;;9.97;7.60;;;13.20;99.90;;;;;;4194506;28;20212;-78
2023/06/17 04:50:43;;;;;;;13.80;8.57;;;13.20;99.90;;;;;;4192551;28;20313;-78
2023/06/17 04:52:47;;;;;;;16.17;8.67;;;13.20;99.90;;;;;;4199012;28;20528;-78
2023/06/17 04:54:49;;;;;;;12.43;8.77;;;13.20;99.90;;;;;;4195618;28;20221;-80
2023/06/17 04:56:51;;;;;;;12.13;8.23;;;13.30;99.90;;;;;;4195020;28;20217;-79
2023/06/17 04:58:55;;;;;;;13.90;8.60;;;13.30;99.90;;;;;;4198916;28;20201;-76
2023/06/17 05:00:57;;;;;;;11.97;8.47;;;13.30;99.90;;;;;;4194076;28;20233;-79
2023/06/17 05:02:59;;;;;;;14.10;8.77;;;13.30;99.90;;;;;;4197729;28;21783;-78
2023/06/17 05:05:00;;;;;;;14.07;9.63;;;13.30;99.90;;;;;;4198208;28;20293;-79
2023/06/17 05:07:04;;;;;;;11.33;8.13;;;13.40;99.90;;;;;;4197644;28;20221;-77
2023/06/17 05:09:07;;;;;;;13.60;8.70;;;13.40;99.90;;;;;;4198081;28;20259;-79
2023/06/17 05:11:09;;;;;;;14.07;9.07;;;13.40;99.90;;;;;;4197383;28;20611;-78
2023/06/17 05:13:11;;;;;;;11.60;8.63;;;13.40;99.90;;;;;;4201481;28;20205;-78
2023/06/17 05:15:15;;;;;;;17.07;9.97;;;13.50;99.90;;;;;;4199161;28;20206;-79
2023/06/17 05:17:17;;;;;;;13.27;9.67;;;13.50;99.90;;;;;;4196356;28;20202;-78
2023/06/17 05:19:19;;;;;;;13.90;9.10;;;13.60;99.90;;;;;;4193466;28;20305;-78
2023/06/17 05:21:22;;;;;;;15.10;9.33;;;13.60;99.90;;;;;;4201031;28;20221;-78
2023/06/17 05:23:24;;;;;;;13.97;9.07;;;13.70;99.90;;;;;;4197560;28;20236;-77
2023/06/17 05:25:25;;;;;;;13.83;8.47;;;13.70;99.90;;;;;;4197221;28;20209;-79
2023/06/17 05:27:28;;;;;;;13.40;8.83;;;13.70;99.90;;;;;;4195267;28;20296;-77
2023/06/17 05:29:30;;;;;;;13.73;9.10;;;13.80;99.90;;;;;;4194397;28;20210;-78
2023/06/17 05:31:34;;;;;;;14.37;9.00;;;13.80;99.90;;;;;;4196878;28;20256;-77
2023/06/17 05:33:35;;;;;;;13.53;8.90;;;13.90;99.90;;;;;;4197314;28;20580;-79
2023/06/17 05:35:37;;;;;;;12.70;8.47;;;13.90;99.90;;;;;;4196301;28;20201;-80
2023/06/17 05:37:39;;;;;;;12.13;8.80;;;14.00;99.90;;;;;;4201090;28;20699;-79
2023/06/17 05:39:41;;;;;;;11.50;7.83;;;14.10;99.90;;;;;;4197435;28;20212;-79
2023/06/17 05:41:43;;;;;;;12.93;8.07;;;14.20;99.90;;;;;;4197699;28;20344;-79
2023/06/17 05:43:46;;;;;;;11.77;8.23;;;14.30;99.90;;;;;;4197275;28;20210;-79
2023/06/17 05:45:48;;;;;;;12.23;9.13;;;14.40;99.90;;;;;;4196009;28;20318;-78
2023/06/17 05:47:51;;;;;;;12.97;8.60;;;14.50;99.90;;;;;;4196539;28;20237;-79
2023/06/17 05:49:53;;;;;;;13.40;8.97;;;14.70;99.90;;;;;;4194976;28;20651;-77
2023/06/17 05:51:55;;;;;;;15.33;9.50;;;14.80;99.90;;;;;;4195531;28;20237;-80
2023/06/17 05:53:56;;;;;;;12.23;8.97;;;14.90;99.90;;;;;;4203455;28;20218;-80
2023/06/17 05:55:58;;;;;;;15.53;8.90;;;15.00;99.90;;;;;;4199294;28;20306;-80
2023/06/17 05:58:00;;;;;;;11.80;8.13;;;15.00;99.90;;;;;;4199956;28;20323;-79
2023/06/17 06:00:03;;;;;;;11.70;8.27;;;15.10;99.90;;;;;;4197440;28;20219;-80
2023/06/17 06:02:05;;;;;;;13.67;9.03;;;15.30;99.90;;;;;;4193552;28;20323;-79
2023/06/17 06:04:09;;;;;;;14.43;9.23;;;15.30;99.90;;;;;;4189487;28;20218;-78
2023/06/17 06:06:11;;;;;;;16.53;10.13;;;15.50;99.90;;;;;;4195380;28;20246;-79
2023/06/17 06:08:12;;;;;;;14.73;9.70;;;15.50;99.90;;;;;;4193014;28;20249;-78
2023/06/17 06:10:14;;;;;;;11.93;9.27;;;15.60;99.90;;;;;;4195928;28;20308;-78
2023/06/17 06:12:16;;;;;;;13.40;9.57;;;15.70;99.90;;;;;;4199197;28;20920;-79
2023/06/17 06:14:18;;;;;;;13.80;8.67;;;15.80;99.90;;;;;;4198302;28;20217;-79
2023/06/17 06:16:20;;;;;;;11.50;8.27;;;15.80;99.90;;;;;;4200901;28;20749;-81
2023/06/17 06:18:22;;;;;;;12.33;7.90;;;16.00;99.90;;;;;;4195674;28;20232;-79
2023/06/17 06:20:26;;;;;;;13.03;9.87;;;16.10;99.90;;;;;;4191400;28;20236;-79
2023/06/17 06:22:28;;;;;;;13.37;9.57;;;16.20;99.90;;;;;;4201027;28;20317;-79
2023/06/17 06:24:29;;;;;;;12.07;8.40;;;16.30;99.90;;;;;;4197089;28;20212;-79
2023/06/17 06:26:31;;;;;;;13.10;9.50;;;16.50;99.90;;;;;;4197052;28;20725;-80
2023/06/17 06:28:33;;;;;;;13.90;9.73;;;16.50;99.90;;;;;;4198651;28;20210;-80
2023/06/17 06:30:36;;;;;;;15.67;9.47;;;16.50;99.90;;;;;;4194657;28;20652;-79
2023/06/17 06:32:38;;;;;;;15.90;9.73;;;16.60;99.90;;;;;;4194562;28;20253;-79
2023/06/17 06:34:40;;;;;;;13.77;9.70;;;16.70;99.90;;;;;;4194491;28;20314;-78
2023/06/17 06:36:43;;;;;;;13.47;9.77;;;16.70;99.90;;;;;;4197741;28;20261;-79
2023/06/17 06:38:45;;;;;;;14.93;10.77;;;16.80;99.90;;;;;;4191103;28;20317;-78
2023/06/17 06:40:47;;;;;;;18.93;11.13;;;16.80;99.90;;;;;;4193890;28;20718;-77
2023/06/17 06:42:49;;;;;;;16.83;10.67;;;16.80;99.90;;;;;;4189121;28;20229;-77
2023/06/17 06:44:50;;;;;;;16.77;12.03;;;16.90;99.90;;;;;;4199415;28;20215;-76
2023/06/17 06:46:54;;;;;;;19.30;12.37;;;16.90;99.90;;;;;;4190802;28;20213;-76
2023/06/17 06:48:56;;;;;;;21.33;12.70;;;17.00;99.90;;;;;;4190161;28;20666;-78
2023/06/17 06:50:58;;;;;;;16.57;11.13;;;17.00;99.90;;;;;;4192923;28;20236;-77
2023/06/17 06:53:02;;;;;;;17.53;12.17;;;17.00;99.90;;;;;;4194252;28;20312;-78
2023/06/17 06:55:04;;;;;;;20.73;12.07;;;17.10;99.90;;;;;;4194338;28;20245;-79
2023/06/17 06:57:06;;;;;;;15.83;11.17;;;17.10;99.90;;;;;;4200090;28;20210;-77
2023/06/17 06:59:08;;;;;;;20.30;12.47;;;17.10;99.90;;;;;;4194493;28;20229;-78
2023/06/17 07:01:10;;;;;;;17.50;12.60;;;17.10;99.90;;;;;;4193969;28;20269;-76
2023/06/17 07:03:12;;;;;;;20.47;14.47;;;17.10;99.90;;;;;;4196264;28;20323;-77
2023/06/17 07:05:14;;;;;;;23.63;13.80;;;17.10;99.90;;;;;;4192177;28;20698;-76
2023/06/17 07:07:15;;;;;;;18.07;12.90;;;17.10;99.90;;;;;;4187591;28;20211;-77
2023/06/17 07:09:19;;;;;;;20.43;13.57;;;17.10;99.90;;;;;;4194392;28;20306;-76
2023/06/17 07:11:21;;;;;;;18.20;12.10;;;17.20;99.90;;;;;;4191990;28;20236;-77
2023/06/17 07:13:23;;;;;;;21.47;13.83;;;17.20;99.90;;;;;;4191253;28;20215;-78
2023/06/17 07:15:25;;;;;;;20.00;13.07;;;17.30;99.90;;;;;;4192140;28;20218;-79
2023/06/17 07:17:27;;;;;;;17.57;12.80;;;17.40;99.90;;;;;;4190417;28;20199;-76
2023/06/17 07:19:28;;;;;;;15.30;11.17;;;17.40;99.90;;;;;;4197517;28;20206;-76
2023/06/17 07:21:30;;;;;;;18.27;13.13;;;17.50;99.90;;;;;;4197097;28;20712;-76
2023/06/17 07:23:32;;;;;;;21.73;13.87;;;17.60;99.90;;;;;;4192840;28;20209;-78
2023/06/17 07:25:36;;;;;;;24.33;14.97;;;17.70;99.90;;;;;;4196061;28;20613;-77
2023/06/17 07:27:38;;;;;;;22.80;14.13;;;17.70;99.90;;;;;;4191931;28;20212;-78
2023/06/17 07:29:40;;;;;;;23.63;15.80;;;17.70;99.90;;;;;;4195641;28;20964;-78
2023/06/17 07:31:42;;;;;;;27.73;16.37;;;17.80;99.90;;;;;;4195710;28;20261;-77
2023/06/17 07:33:44;;;;;;;28.70;16.70;;;17.90;99.90;;;;;;4194579;28;20210;-77
2023/06/17 07:35:46;;;;;;;21.87;15.67;;;17.90;99.90;;;;;;4195497;28;20212;-78
2023/06/17 07:37:51;;;;;;;23.53;15.83;;;18.00;99.90;;;;;;4192630;28;20224;-79
2023/06/17 07:39:53;;;;;;;20.17;14.13;;;18.10;99.90;;;;;;4194483;28;20215;-78
2023/06/17 07:41:56;;;;;;;22.60;14.73;;;18.30;99.90;;;;;;4196476;28;20308;-79
2023/06/17 07:43:58;;;;;;;20.83;13.47;;;18.30;99.90;;;;;;4194538;28;20281;-77
2023/06/17 07:46:00;;;;;;;18.63;13.27;;;18.40;99.90;;;;;;4197906;28;20214;-79
2023/06/17 07:48:02;;;;;;;18.37;13.80;;;18.40;99.90;;;;;;4200750;28;20298;-79
2023/06/17 07:50:05;;;;;;;24.83;15.27;;;18.50;99.90;;;;;;4199624;28;20687;-79
2023/06/17 07:52:09;;;;;;;18.43;13.40;;;18.50;99.90;;;;;;4198837;28;20233;-78
2023/06/17 07:54:11;;;;;;;22.63;14.10;;;18.60;99.90;;;;;;4202309;28;20592;-78
2023/06/17 07:56:13;;;;;;;17.10;12.93;;;18.60;99.90;;;;;;4202441;28;20237;-78
2023/06/17 07:58:16;;;;;;;19.47;13.57;;;18.70;99.90;;;;;;4198869;28;20248;-78
2023/06/17 08:00:18;;;;;;;19.17;13.13;;;18.70;99.90;;;;;;4198755;28;20213;-77
2023/06/17 08:02:21;;;;;;;18.73;12.30;;;18.80;99.90;;;;;;4195881;28;20319;-77
2023/06/17 08:04:22;;;;;;;15.87;11.97;;;18.80;99.90;;;;;;4195541;28;20266;-77
2023/06/17 08:06:24;;;;;;;18.83;12.57;;;18.90;99.90;;;;;;4203856;28;20681;-77
2023/06/17 08:08:26;;;;;;;18.20;12.53;;;18.90;99.90;;;;;;4202526;28;20232;-76
2023/06/17 08:10:28;;;;;;;16.70;11.90;;;19.00;99.90;;;;;;4213188;28;20784;-75
2023/06/17 08:12:30;;;;;;;18.20;13.40;;;19.00;99.90;;;;;;4205412;28;20745;-76
2023/06/17 08:14:33;;;;;;;14.90;11.80;;;18.90;99.90;;;;;;4205770;28;20275;-77
2023/06/17 08:16:35;;;;;;;18.90;12.97;;;18.90;99.90;;;;;;4214321;28;20209;-76
2023/06/17 08:18:37;;;;;;;21.77;13.83;;;18.90;99.90;;;;;;4206333;28;20209;-76
2023/06/17 08:20:39;;;;;;;20.73;14.43;;;18.90;99.90;;;;;;4209111;28;20236;-78
2023/06/17 08:22:41;;;;;;;18.37;12.37;;;19.00;99.90;;;;;;4209516;28;20224;-78
2023/06/17 08:24:43;;;;;;;20.87;12.97;;;19.00;99.90;;;;;;4210190;28;20238;-77
2023/06/17 08:26:45;;;;;;;19.60;12.97;;;19.10;99.90;;;;;;4204058;28;20762;-77
2023/06/17 08:28:47;;;;;;;20.13;12.67;;;19.10;99.90;;;;;;4209039;28;20226;-77
2023/06/17 08:30:51;;;;;;;19.13;13.27;;;19.20;99.90;;;;;;4204871;28;20240;-78
2023/06/17 08:32:53;;;;;;;15.90;12.17;;;19.30;99.90;;;;;;4205081;28;20220;-79
2023/06/17 08:34:55;;;;;;;17.23;12.30;;;19.40;99.90;;;;;;4196898;28;20280;-78
2023/06/17 08:36:57;;;;;;;17.13;11.70;;;19.50;99.90;;;;;;4194392;28;20222;-79
2023/06/17 08:39:00;;;;;;;20.37;12.80;;;19.60;99.90;;;;;;4197956;28;20212;-78
2023/06/17 08:41:02;;;;;;;17.33;11.67;;;19.70;99.90;;;;;;4202945;28;20229;-78
2023/06/17 08:43:05;;;;;;;15.93;10.97;;;19.80;99.90;;;;;;4203979;28;20215;-77
2023/06/17 08:45:08;;;;;;;21.47;12.03;;;20.00;99.90;;;;;;4197450;28;20216;-77
2023/06/17 08:47:16;;;;;;;16.47;10.37;;;20.10;99.90;;;;;;4199602;28;20213;-78
2023/06/17 08:49:18;;;;;;;13.70;11.00;;;20.30;99.90;;;;;;4206306;28;20228;-77
2023/06/17 08:51:21;;;;;;;15.83;12.33;;;20.40;99.90;;;;;;4204353;28;20316;-77
2023/06/17 08:53:24;;;;;;;14.33;11.20;;;20.50;99.90;;;;;;4199258;28;20229;-78
2023/06/17 08:55:26;;;;;;;14.43;10.23;;;20.50;99.90;;;;;;4208764;28;20224;-78
2023/06/17 08:57:28;;;;;;;15.47;9.77;;;20.60;99.90;;;;;;4211973;28;20368;-78
2023/06/17 08:59:30;;;;;;;12.87;10.27;;;20.60;99.90;;;;;;4205994;28;20204;-80
2023/06/17 09:01:34;;;;;;;13.00;10.30;;;20.70;99.90;;;;;;4215067;28;20225;-81
2023/06/17 09:03:41;;;;;;;15.93;9.90;;;20.80;99.90;;;;;;4209264;28;20210;-80
2023/06/17 09:05:43;;;;;;;15.57;10.67;;;20.80;99.90;;;;;;4211866;28;20218;-78
2023/06/17 09:07:45;;;;;;;16.20;10.93;;;20.90;99.90;;;;;;4211303;28;20234;-79
2023/06/17 09:09:53;;;;;;;15.73;10.40;;;20.90;99.90;;;;;;4210714;28;20236;-80
2023/06/17 09:11:55;;;;;;;15.27;10.43;;;20.90;99.90;;;;;;4209362;28;20771;-78
2023/06/17 09:13:58;;;;;;;19.43;10.67;;;20.90;99.90;;;;;;4203479;28;20233;-76
2023/06/17 09:16:01;;;;;;;13.77;9.93;;;20.90;99.90;;;;;;4206152;28;20236;-79
2023/06/17 09:18:03;;;;;;;11.97;10.10;;;21.00;99.90;;;;;;4204047;28;20260;-79
2023/06/17 09:20:14;;;;;;;12.93;9.20;;;21.00;99.90;;;;;;4202241;28;20222;-79
2023/06/17 09:22:18;;;;;;;11.80;9.37;;;21.10;99.90;;;;;;4207591;28;20212;-78
2023/06/17 09:24:20;;;;;;;13.83;10.50;;;21.30;99.90;;;;;;4202927;28;20205;-80
2023/06/17 09:26:25;;;;;;;15.83;9.63;;;21.40;99.90;;;;;;4197992;28;20210;-81
2023/06/17 09:28:27;;;;;;;12.07;9.40;;;21.50;99.90;;;;;;4197923;28;20300;-78
2023/06/17 09:30:29;;;;;;;17.80;9.67;;;21.50;99.90;;;;;;4204746;28;20242;-78
2023/06/17 09:32:38;;;;;;;12.37;8.40;;;21.50;99.90;;;;;;4196953;28;20294;-79
2023/06/17 09:34:49;;;;;;;10.87;7.37;;;21.60;99.90;;;;;;4190862;28;20230;-78
2023/06/17 09:36:59;;;;;;;9.13;7.03;;;21.60;99.90;;;;;;4194801;28;20587;-78
2023/06/17 09:39:06;;;;;;;12.93;8.20;;;21.60;99.90;;;;;;4199489;28;20211;-79
2023/06/17 09:41:14;;;;;;;10.17;7.60;;;21.60;99.90;;;;;;4203639;28;20229;-80
2023/06/17 09:43:16;;;;;;;9.87;7.83;;;21.70;99.90;;;;;;4198585;28;20205;-81
2023/06/17 09:45:23;;;;;;;10.63;8.10;;;21.80;99.90;;;;;;4200128;28;20304;-80
2023/06/17 09:47:33;;;;;;;11.40;7.90;;;22.00;99.90;;;;;;4197383;28;20229;-80
2023/06/17 09:49:36;;;;;;;13.53;7.13;;;22.10;99.90;;;;;;4197316;28;20211;-79
2023/06/17 09:51:39;;;;;;;10.97;7.00;;;22.30;99.90;;;;;;4206874;28;20222;-80
2023/06/17 09:53:47;;;;;;;10.60;7.20;;;22.40;99.90;;;;;;4200411;28;20276;-81
2023/06/17 09:55:55;;;;;;;7.70;6.20;;;22.50;99.90;;;;;;4193757;28;20224;-80
2023/06/17 09:57:58;;;;;;;10.10;6.70;;;22.60;99.90;;;;;;4197205;28;20211;-80
2023/06/17 10:00:00;;;;;;;9.00;6.67;;;22.70;99.90;;;;;;4192722;28;20737;-80
2023/06/17 10:02:02;;;;;;;9.67;6.50;;;22.80;99.90;;;;;;4192945;28;20240;-81
2023/06/17 10:04:05;;;;;;;10.73;6.17;;;22.80;99.90;;;;;;4200814;28;20212;-80
2023/06/17 10:06:09;;;;;;;8.13;6.23;;;22.90;99.90;;;;;;4197559;28;20208;-78
2023/06/17 10:08:12;;;;;;;7.80;5.57;;;22.90;99.90;;;;;;4197613;28;20650;-79
2023/06/17 10:10:16;;;;;;;8.73;5.60;;;23.00;99.90;;;;;;4195624;28;20257;-81
2023/06/17 10:12:20;;;;;;;7.77;6.07;;;23.20;99.90;;;;;;4199375;28;20687;-79
2023/06/17 10:14:26;;;;;;;12.73;6.03;;;23.30;99.90;;;;;;4197610;28;20211;-80
2023/06/17 10:16:33;;;;;;;8.90;5.40;;;23.30;99.90;;;;;;4199306;28;20662;-81
2023/06/17 10:18:38;;;;;;;8.33;5.20;;;23.30;99.90;;;;;;4200481;28;20203;-80
2023/06/17 10:20:41;;;;;;;7.30;5.50;;;23.30;99.90;;;;;;4201427;28;20239;-81
2023/06/17 10:22:44;;;;;;;9.07;5.93;;;23.20;99.90;;;;;;4192421;28;20803;-79
2023/06/17 10:24:46;;;;;;;7.90;5.60;;;23.20;99.90;;;;;;4197547;28;20245;-80
2023/06/17 10:26:52;;;;;;;9.90;6.57;;;23.10;99.90;;;;;;4198450;28;20211;-81
2023/06/17 10:28:59;;;;;;;8.33;5.40;;;23.10;99.90;;;;;;4196928;28;20223;-81
2023/06/17 10:31:01;;;;;;;10.00;6.07;;;23.10;99.90;;;;;;4198559;28;20267;-79